Time;durP1;ratioP1;P1;durP2;ratioP2;P2;SDS_P1;SDS_P2;PMS_P1;PMS_P2;Temp;Humidity;BMP_temperature;BMP_pressure;BME280_temperature;BME280_humidity;BME280_pressure;Samples;Min_cycle;Max_cycle;Signal;HPM_P1;HPM_P2
2022/05/23 00:00:41;;;;;;;3.15;1.73;;;;;;;;;;4992494;28;20180;-82
2022/05/23 00:03:07;;;;;;;4.47;1.73;;;;;;;;;;5009034;28;20064;-82
2022/05/23 00:05:32;;;;;;;3.55;1.70;;;;;;;;;;5004822;28;20037;-81
2022/05/23 00:07:59;;;;;;;3.33;1.95;;;;;;;;;;4995745;28;20435;-82
2022/05/23 00:10:24;;;;;;;5.15;2.10;;;;;;;;;;4979719;28;20061;-82
2022/05/23 00:12:50;;;;;;;3.55;1.50;;;;;;;;;;4979556;28;20118;-82
2022/05/23 00:15:15;;;;;;;3.88;1.73;;;;;;;;;;4979931;28;20037;-82
2022/05/23 00:17:41;;;;;;;3.00;1.67;;;;;;;;;;4979047;28;20041;-81
2022/05/23 00:20:09;;;;;;;2.75;1.58;;;;;;;;;;5012646;28;20065;-82
2022/05/23 00:22:34;;;;;;;2.85;1.60;;;;;;;;;;4996262;28;20042;-81
2022/05/23 00:25:00;;;;;;;3.95;1.48;;;;;;;;;;4995653;28;20073;-82
2022/05/23 00:27:25;;;;;;;2.58;1.40;;;;;;;;;;4977958;28;20060;-82
2022/05/23 00:29:51;;;;;;;3.35;1.80;;;;;;;;;;5005308;28;20060;-81
2022/05/23 00:35:19;;;;;;;3.33;1.73;;;;;;;;;;4975610;28;20137;-82
2022/05/23 00:37:46;;;;;;;2.55;1.23;;;;;;;;;;4975137;28;20042;-82
2022/05/23 00:40:22;;;;;;;3.00;1.50;;;;;;;;;;4956716;28;20036;-82
2022/05/23 00:45:31;;;;;;;3.03;1.80;;;;;;;;;;4975297;28;20527;-82
2022/05/23 00:47:56;;;;;;;4.68;1.83;;;;;;;;;;4972149;28;20078;-82
2022/05/23 00:50:22;;;;;;;3.05;1.83;;;;;;;;;;4975740;28;20034;-82
2022/05/23 00:52:53;;;;;;;2.75;1.65;;;;;;;;;;4992145;28;20110;-82
2022/05/23 00:55:47;;;;;;;3.50;1.90;;;;;;;;;;4975320;28;20026;-82
2022/05/23 00:58:31;;;;;;;5.03;1.60;;;;;;;;;;5008934;28;20046;-82
2022/05/23 01:00:57;;;;;;;2.58;1.50;;;;;;;;;;5008820;28;20034;-82
2022/05/23 01:03:23;;;;;;;3.22;1.83;;;;;;;;;;4992234;28;20042;-82
2022/05/23 01:05:51;;;;;;;3.08;1.40;;;;;;;;;;4977539;28;20045;-82
2022/05/23 01:08:17;;;;;;;3.03;1.38;;;;;;;;;;5039038;28;20542;-82
2022/05/23 01:10:42;;;;;;;2.42;1.38;;;;;;;;;;5056560;28;20026;-82
2022/05/23 01:13:08;;;;;;;3.50;1.50;;;;;;;;;;5040101;28;20459;-82
2022/05/23 01:15:33;;;;;;;2.97;1.85;;;;;;;;;;5039701;28;20038;-82
2022/05/23 01:17:59;;;;;;;2.28;1.25;;;;;;;;;;5039358;28;20027;-82
2022/05/23 01:20:24;;;;;;;2.58;1.20;;;;;;;;;;5040025;28;20504;-82
2022/05/23 01:22:56;;;;;;;2.90;1.60;;;;;;;;;;5040236;28;20054;-82
2022/05/23 01:25:34;;;;;;;4.63;1.30;;;;;;;;;;5004460;28;20522;-82
2022/05/23 01:28:00;;;;;;;2.60;1.40;;;;;;;;;;5007607;28;20049;-82
2022/05/23 01:30:25;;;;;;;2.67;1.50;;;;;;;;;;4972477;28;20042;-82
2022/05/23 01:32:51;;;;;;;2.70;1.40;;;;;;;;;;4940006;28;20549;-82
2022/05/23 01:35:16;;;;;;;4.40;1.63;;;;;;;;;;4972015;28;20049;-82
2022/05/23 01:37:42;;;;;;;3.33;1.50;;;;;;;;;;4956029;28;20400;-82
2022/05/23 01:40:10;;;;;;;2.97;1.02;;;;;;;;;;4955782;28;20392;-82
2022/05/23 01:42:35;;;;;;;2.22;1.20;;;;;;;;;;4940267;28;20038;-82
2022/05/23 01:45:01;;;;;;;2.33;1.10;;;;;;;;;;4956169;28;20037;-82
2022/05/23 01:47:26;;;;;;;3.95;1.35;;;;;;;;;;4971620;28;20071;-82
2022/05/23 01:49:51;;;;;;;3.08;1.48;;;;;;;;;;4958302;28;20061;-82
2022/05/23 01:52:17;;;;;;;2.90;1.50;;;;;;;;;;4975083;28;20038;-82
2022/05/23 01:54:42;;;;;;;2.83;1.45;;;;;;;;;;4991044;28;20499;-82
2022/05/23 01:57:09;;;;;;;2.58;1.27;;;;;;;;;;4974682;28;20110;-82
2022/05/23 02:02:19;;;;;;;3.38;1.50;;;;;;;;;;4994113;28;20034;-82
2022/05/23 02:04:45;;;;;;;2.80;1.50;;;;;;;;;;4980575;28;20466;-82
2022/05/23 02:07:11;;;;;;;2.20;1.33;;;;;;;;;;4978215;28;20123;-82
2022/05/23 02:09:37;;;;;;;2.78;1.05;;;;;;;;;;4993895;28;20041;-81
2022/05/23 02:12:02;;;;;;;3.30;1.33;;;;;;;;;;5011018;28;20116;-82
2022/05/23 02:14:28;;;;;;;2.70;1.30;;;;;;;;;;4994625;28;20065;-82
2022/05/23 02:16:53;;;;;;;3.35;1.60;;;;;;;;;;4977733;28;20038;-82
2022/05/23 02:19:19;;;;;;;2.28;1.13;;;;;;;;;;4978006;28;20090;-82
2022/05/23 02:21:44;;;;;;;3.97;1.55;;;;;;;;;;4994303;28;20106;-81
2022/05/23 02:24:10;;;;;;;1.90;1.08;;;;;;;;;;4977782;28;20495;-82
2022/05/23 02:26:35;;;;;;;2.10;1.25;;;;;;;;;;4967522;28;20037;-82
2022/05/23 02:29:01;;;;;;;4.80;1.48;;;;;;;;;;4976879;28;20030;-81
2022/05/23 02:31:27;;;;;;;2.63;1.15;;;;;;;;;;4978056;28;20107;-82
2022/05/23 02:33:52;;;;;;;4.15;1.35;;;;;;;;;;4977964;28;20042;-82
2022/05/23 02:36:17;;;;;;;3.50;1.73;;;;;;;;;;4978010;28;20480;-83
2022/05/23 02:38:43;;;;;;;2.50;1.20;;;;;;;;;;4993800;28;20411;-81
2022/05/23 02:41:08;;;;;;;3.67;1.20;;;;;;;;;;4993902;28;20113;-83
2022/05/23 02:43:34;;;;;;;3.25;1.38;;;;;;;;;;4977367;28;20037;-82
2022/05/23 02:45:59;;;;;;;2.33;1.17;;;;;;;;;;4977733;28;20431;-82
2022/05/23 02:48:25;;;;;;;3.95;1.98;;;;;;;;;;5009823;28;20504;-82
2022/05/23 02:50:50;;;;;;;2.78;1.30;;;;;;;;;;5009852;28;20420;-82
2022/05/23 02:53:16;;;;;;;1.80;1.00;;;;;;;;;;4993590;28;20034;-82
2022/05/23 02:55:41;;;;;;;2.13;0.90;;;;;;;;;;4993758;28;20132;-82
2022/05/23 02:58:07;;;;;;;3.17;1.42;;;;;;;;;;4992129;28;20046;-82
2022/05/23 03:00:34;;;;;;;3.20;1.52;;;;;;;;;;4976186;28;20567;-82
2022/05/23 03:03:02;;;;;;;2.88;1.20;;;;;;;;;;4977506;28;20034;-82
2022/05/23 03:05:32;;;;;;;4.15;1.30;;;;;;;;;;4961460;28;20037;-82
2022/05/23 03:07:57;;;;;;;2.30;1.10;;;;;;;;;;4976513;28;20041;-82
2022/05/23 03:10:23;;;;;;;3.28;1.20;;;;;;;;;;4961263;28;20026;-82
2022/05/23 03:12:49;;;;;;;3.42;1.05;;;;;;;;;;4977388;28;20030;-82
2022/05/23 03:15:14;;;;;;;2.22;1.35;;;;;;;;;;4945197;28;20030;-81
2022/05/23 03:17:40;;;;;;;2.97;1.15;;;;;;;;;;4944784;28;20114;-82
2022/05/23 03:20:06;;;;;;;1.77;0.90;;;;;;;;;;4960510;28;20041;-82
2022/05/23 03:27:59;;;;;;;1.75;1.02;;;;;;;;;;4962278;28;20049;-81
2022/05/23 03:30:25;;;;;;;3.13;1.55;;;;;;;;;;4977421;28;20129;-82
2022/05/23 03:32:51;;;;;;;2.35;1.38;;;;;;;;;;4977341;28;20108;-82
2022/05/23 03:35:16;;;;;;;1.83;1.08;;;;;;;;;;4992949;28;20034;-83
2022/05/23 03:37:42;;;;;;;4.20;1.20;;;;;;;;;;4976753;28;20038;-82
2022/05/23 03:40:08;;;;;;;3.05;1.02;;;;;;;;;;4992701;28;20041;-82
2022/05/23 03:42:34;;;;;;;2.50;1.08;;;;;;;;;;4993343;28;20037;-82
2022/05/23 03:44:59;;;;;;;2.17;1.23;;;;;;;;;;4960780;28;20030;-82
2022/05/23 03:47:25;;;;;;;3.13;1.27;;;;;;;;;;5008923;28;20038;-82
2022/05/23 03:49:50;;;;;;;2.50;1.20;;;;;;;;;;4992621;28;20049;-82
2022/05/23 03:52:16;;;;;;;2.13;1.10;;;;;;;;;;4993058;28;20440;-82
2022/05/23 03:54:41;;;;;;;1.58;1.00;;;;;;;;;;5009365;28;20415;-81
2022/05/23 03:57:08;;;;;;;1.88;0.90;;;;;;;;;;4992773;28;20042;-82
2022/05/23 03:59:33;;;;;;;2.40;1.13;;;;;;;;;;4977022;28;20045;-82
2022/05/23 04:01:59;;;;;;;2.35;1.25;;;;;;;;;;4976515;28;20061;-82
2022/05/23 04:04:25;;;;;;;1.95;1.05;;;;;;;;;;4979263;28;20029;-82
2022/05/23 04:06:51;;;;;;;1.77;1.05;;;;;;;;;;4996135;28;20124;-81
2022/05/23 04:09:16;;;;;;;3.10;1.17;;;;;;;;;;4979677;28;20534;-81
2022/05/23 04:11:44;;;;;;;3.05;1.05;;;;;;;;;;4976096;28;20464;-83
2022/05/23 04:14:12;;;;;;;2.15;1.05;;;;;;;;;;4992882;28;20415;-81
2022/05/23 04:16:37;;;;;;;4.15;1.45;;;;;;;;;;4975978;28;20034;-82
2022/05/23 04:19:05;;;;;;;2.25;1.17;;;;;;;;;;4976528;28;20041;-82
2022/05/23 04:21:31;;;;;;;2.13;1.00;;;;;;;;;;4977038;28;20044;-82
2022/05/23 04:23:57;;;;;;;3.42;1.25;;;;;;;;;;4992641;28;20040;-82
2022/05/23 04:26:22;;;;;;;3.40;1.15;;;;;;;;;;4954897;28;20038;-81
2022/05/23 04:28:47;;;;;;;2.33;0.77;;;;;;;;;;5008355;28;20042;-82
2022/05/23 04:31:13;;;;;;;1.98;0.80;;;;;;;;;;4992332;28;20038;-82
2022/05/23 04:36:23;;;;;;;2.35;1.10;;;;;;;;;;4981540;28;20079;-82
2022/05/23 04:38:48;;;;;;;2.13;0.95;;;;;;;;;;4976172;28;20041;-82
2022/05/23 04:41:13;;;;;;;1.90;0.95;;;;;;;;;;4944086;28;20041;-81
2022/05/23 04:43:39;;;;;;;2.47;1.00;;;;;;;;;;4976096;28;20042;-81
2022/05/23 04:46:04;;;;;;;1.73;0.80;;;;;;;;;;4959823;28;20052;-82
2022/05/23 04:51:14;;;;;;;2.00;0.98;;;;;;;;;;4980103;28;20030;-81
2022/05/23 04:53:39;;;;;;;1.95;1.02;;;;;;;;;;4991944;28;20044;-81
2022/05/23 04:56:05;;;;;;;2.33;1.00;;;;;;;;;;5008293;28;20080;-81
2022/05/23 04:58:30;;;;;;;1.70;0.70;;;;;;;;;;4975386;28;20034;-83
2022/05/23 05:00:59;;;;;;;3.70;0.93;;;;;;;;;;4975819;28;20529;-80
2022/05/23 05:03:24;;;;;;;10.13;1.27;;;;;;;;;;4975484;28;20040;-81
2022/05/23 05:05:50;;;;;;;5.47;1.45;;;;;;;;;;4977468;28;20117;-80
2022/05/23 05:08:15;;;;;;;3.88;1.33;;;;;;;;;;4972604;28;20485;-80
2022/05/23 05:10:41;;;;;;;8.32;1.77;;;;;;;;;;4972826;28;20053;-84
2022/05/23 05:13:07;;;;;;;4.88;1.33;;;;;;;;;;4970576;28;20527;-83
2022/05/23 05:15:34;;;;;;;4.28;1.38;;;;;;;;;;4991740;28;20037;-84
2022/05/23 05:17:59;;;;;;;4.97;1.42;;;;;;;;;;4991421;28;20034;-82
2022/05/23 05:20:25;;;;;;;4.38;1.40;;;;;;;;;;4972421;28;20033;-83
2022/05/23 05:22:51;;;;;;;5.05;2.00;;;;;;;;;;4991950;28;20038;-84
2022/05/23 05:25:17;;;;;;;5.07;1.48;;;;;;;;;;4974736;28;20044;-83
2022/05/23 05:27:43;;;;;;;4.85;1.20;;;;;;;;;;4974834;28;20415;-84
2022/05/23 05:30:10;;;;;;;6.15;1.40;;;;;;;;;;4956258;28;20125;-84
2022/05/23 05:32:40;;;;;;;7.47;1.38;;;;;;;;;;4971909;28;20030;-84
2022/05/23 05:35:12;;;;;;;6.68;1.83;;;;;;;;;;4988464;28;20175;-84
2022/05/23 05:37:44;;;;;;;6.03;1.48;;;;;;;;;;4955958;28;20034;-83
2022/05/23 05:40:09;;;;;;;6.43;1.58;;;;;;;;;;4956021;28;20488;-84
2022/05/23 05:42:38;;;;;;;5.95;1.77;;;;;;;;;;4971777;28;20027;-84
2022/05/23 05:45:10;;;;;;;7.43;1.42;;;;;;;;;;4988369;28;20034;-84
2022/05/23 05:47:37;;;;;;;10.15;1.73;;;;;;;;;;4990878;28;20105;-83
2022/05/23 05:50:09;;;;;;;7.35;1.83;;;;;;;;;;4959293;28;20034;-84
2022/05/23 05:52:35;;;;;;;6.93;2.28;;;;;;;;;;4991421;28;20160;-84
2022/05/23 05:55:03;;;;;;;7.55;1.63;;;;;;;;;;4991405;28;20050;-85
2022/05/23 05:57:29;;;;;;;7.63;1.90;;;;;;;;;;4991272;28;20488;-86
2022/05/23 05:59:55;;;;;;;6.78;1.83;;;;;;;;;;4959302;28;20030;-85
2022/05/23 06:02:20;;;;;;;6.47;1.55;;;;;;;;;;4960704;28;20102;-84
2022/05/23 06:04:45;;;;;;;4.97;1.60;;;;;;;;;;4975357;28;20042;-84
2022/05/23 06:12:48;;;;;;;5.88;1.70;;;;;;;;;;5006586;28;20072;-80
2022/05/23 06:15:14;;;;;;;10.57;5.32;;;;;;;;;;4972971;28;20038;-82
2022/05/23 06:17:42;;;;;;;12.02;4.50;;;;;;;;;;4990065;28;20527;-82
2022/05/23 06:20:08;;;;;;;10.50;4.78;;;;;;;;;;4981880;28;20067;-81
2022/05/23 06:22:34;;;;;;;11.02;5.15;;;;;;;;;;4962185;28;20045;-82
2022/05/23 06:25:00;;;;;;;11.23;4.80;;;;;;;;;;4962231;28;20034;-82
2022/05/23 06:27:26;;;;;;;10.68;4.80;;;;;;;;;;4929443;28;20038;-82
2022/05/23 06:29:51;;;;;;;8.88;4.88;;;;;;;;;;4982628;28;20045;-83
2022/05/23 06:32:17;;;;;;;7.90;4.25;;;;;;;;;;4962012;28;20080;-83
2022/05/23 06:34:42;;;;;;;10.98;5.05;;;;;;;;;;4978096;28;20442;-82
2022/05/23 06:37:07;;;;;;;9.07;4.32;;;;;;;;;;4977907;28;20042;-83
2022/05/23 06:39:33;;;;;;;10.40;4.28;;;;;;;;;;4962264;28;20116;-83
2022/05/23 06:41:58;;;;;;;8.35;4.35;;;;;;;;;;4961723;28;20056;-83
2022/05/23 06:44:24;;;;;;;7.85;4.22;;;;;;;;;;5010227;28;20038;-82
2022/05/23 06:46:50;;;;;;;7.07;3.67;;;;;;;;;;4961227;28;20038;-83
2022/05/23 06:49:15;;;;;;;9.10;3.65;;;;;;;;;;4993762;28;20802;-82
2022/05/23 06:51:41;;;;;;;7.38;3.92;;;;;;;;;;4976634;28;20046;-82
2022/05/23 06:54:06;;;;;;;9.98;3.70;;;;;;;;;;4973945;28;20050;-83
2022/05/23 06:56:33;;;;;;;9.65;4.00;;;;;;;;;;4990465;28;20053;-82
2022/05/23 06:58:58;;;;;;;7.78;3.13;;;;;;;;;;4974038;28;20042;-83
2022/05/23 07:01:24;;;;;;;5.65;3.33;;;;;;;;;;4990637;28;20408;-83
2022/05/23 07:03:49;;;;;;;8.38;3.30;;;;;;;;;;4990748;28;20484;-83
2022/05/23 07:14:26;;;;;;;3.33;1.55;;;;;;;;;;5057795;28;20038;-81
2022/05/23 07:16:53;;;;;;;4.03;1.35;;;;;;;;;;5059214;28;20041;-79
2022/05/23 07:19:19;;;;;;;4.45;1.33;;;;;;;;;;4976391;28;20467;-80
2022/05/23 07:21:44;;;;;;;4.25;1.30;;;;;;;;;;4977554;28;20094;-80
2022/05/23 07:24:10;;;;;;;5.30;1.27;;;;;;;;;;4993078;28;20042;-80
2022/05/23 07:26:37;;;;;;;3.45;1.15;;;;;;;;;;4966718;28;20046;-81
2022/05/23 07:29:03;;;;;;;3.60;1.00;;;;;;;;;;4975297;28;20046;-80
2022/05/23 07:31:29;;;;;;;3.25;1.30;;;;;;;;;;4977186;28;20045;-80
2022/05/23 07:33:54;;;;;;;2.05;1.00;;;;;;;;;;4993253;28;20125;-80
2022/05/23 07:36:20;;;;;;;3.30;0.98;;;;;;;;;;4993140;28;20065;-80
2022/05/23 07:38:46;;;;;;;2.88;1.17;;;;;;;;;;4993529;28;20052;-80
2022/05/23 07:41:11;;;;;;;3.67;1.00;;;;;;;;;;4976721;28;20038;-80
2022/05/23 07:43:39;;;;;;;2.28;1.10;;;;;;;;;;4993110;28;20060;-80
2022/05/23 07:46:09;;;;;;;2.05;0.93;;;;;;;;;;4977017;28;20046;-80
2022/05/23 07:48:43;;;;;;;3.45;1.02;;;;;;;;;;4995496;28;20129;-81
2022/05/23 07:51:12;;;;;;;3.65;1.15;;;;;;;;;;4973564;28;20047;-81
2022/05/23 08:01:50;;;;;;;1.80;1.00;;;;;;;;;;4986885;28;20046;-81
2022/05/23 08:04:16;;;;;;;3.38;1.60;;;;;;;;;;5007845;28;20046;-80
2022/05/23 08:06:43;;;;;;;3.35;1.10;;;;;;;;;;4993026;28;20030;-81
2022/05/23 08:09:09;;;;;;;1.27;0.70;;;;;;;;;;4977564;28;20578;-81
2022/05/23 08:11:37;;;;;;;3.13;1.20;;;;;;;;;;4979681;28;20029;-81
2022/05/23 08:14:04;;;;;;;6.45;1.77;;;;;;;;;;5064225;28;20060;-81
2022/05/23 08:16:35;;;;;;;3.58;1.20;;;;;;;;;;4980182;28;20033;-80
2022/05/23 08:19:02;;;;;;;2.72;0.90;;;;;;;;;;4996353;28;20064;-80
2022/05/23 08:21:28;;;;;;;3.22;1.08;;;;;;;;;;4995385;28;20077;-81
2022/05/23 08:23:54;;;;;;;2.22;1.02;;;;;;;;;;4944283;28;20034;-81
2022/05/23 08:26:19;;;;;;;3.00;1.00;;;;;;;;;;4951951;28;20033;-81
2022/05/23 08:28:45;;;;;;;2.67;1.10;;;;;;;;;;4973094;28;20053;-80
2022/05/23 08:31:10;;;;;;;7.18;1.55;;;;;;;;;;4975334;28;20050;-80
2022/05/23 08:33:36;;;;;;;3.88;1.02;;;;;;;;;;4992505;28;20396;-81
2022/05/23 08:36:02;;;;;;;2.05;0.80;;;;;;;;;;4960258;28;20046;-81
2022/05/23 08:38:27;;;;;;;2.50;0.70;;;;;;;;;;4960296;28;20081;-80
2022/05/23 08:41:11;;;;;;;3.75;0.88;;;;;;;;;;4992132;28;20034;-81
2022/05/23 08:43:49;;;;;;;3.10;1.02;;;;;;;;;;4976082;28;20381;-81
2022/05/23 08:46:21;;;;;;;2.53;0.88;;;;;;;;;;4975883;28;20068;-81
2022/05/23 08:49:06;;;;;;;5.15;1.35;;;;;;;;;;5043381;28;20137;-81
2022/05/23 08:51:39;;;;;;;2.83;0.85;;;;;;;;;;4963157;28;20037;-81
2022/05/23 08:54:25;;;;;;;3.30;1.00;;;;;;;;;;4976258;28;20038;-81
2022/05/23 08:56:56;;;;;;;3.58;1.40;;;;;;;;;;5006909;28;20515;-81
2022/05/23 08:59:31;;;;;;;3.58;1.60;;;;;;;;;;4960775;28;20053;-81
2022/05/23 09:02:06;;;;;;;2.17;0.90;;;;;;;;;;4961064;28;20042;-82
2022/05/23 09:04:45;;;;;;;2.58;0.80;;;;;;;;;;4941979;28;20129;-82
2022/05/23 09:07:13;;;;;;;4.30;1.15;;;;;;;;;;4956930;28;20069;-81
2022/05/23 09:09:39;;;;;;;3.67;0.93;;;;;;;;;;4973792;28;20039;-82
2022/05/23 09:12:10;;;;;;;4.07;1.25;;;;;;;;;;4991785;28;20056;-82
2022/05/23 09:14:36;;;;;;;4.53;1.13;;;;;;;;;;4992195;28;20640;-81
2022/05/23 09:17:02;;;;;;;3.72;1.42;;;;;;;;;;4975408;28;20049;-81
2022/05/23 09:19:37;;;;;;;3.85;1.65;;;;;;;;;;5008152;28;20720;-81
2022/05/23 09:22:14;;;;;;;3.25;1.20;;;;;;;;;;4975962;28;20106;-81
2022/05/23 09:24:47;;;;;;;4.93;1.40;;;;;;;;;;4960843;28;20120;-82
2022/05/23 09:27:31;;;;;;;2.60;1.20;;;;;;;;;;4963932;28;20069;-82
2022/05/23 09:29:58;;;;;;;3.75;1.60;;;;;;;;;;5004712;28;20050;-82
2022/05/23 09:32:39;;;;;;;3.58;1.35;;;;;;;;;;4956337;28;20043;-82
2022/05/23 09:35:21;;;;;;;3.00;1.20;;;;;;;;;;4941363;28;20052;-83
2022/05/23 09:37:49;;;;;;;3.10;1.00;;;;;;;;;;4970865;28;20080;-83
2022/05/23 09:40:36;;;;;;;2.90;1.10;;;;;;;;;;4940562;28;20042;-81
2022/05/23 09:49:23;;;;;;;4.03;1.27;;;;;;;;;;4974356;28;20105;-83
2022/05/23 09:51:58;;;;;;;7.28;1.80;;;;;;;;;;4974706;28;20038;-82
2022/05/23 09:54:36;;;;;;;3.85;1.30;;;;;;;;;;4991829;28;20480;-82
2022/05/23 09:57:37;;;;;;;4.57;1.40;;;;;;;;;;4994436;28;20424;-83
2022/05/23 10:00:05;;;;;;;2.78;1.17;;;;;;;;;;4991170;28;20419;-83
2022/05/23 10:02:41;;;;;;;5.65;1.08;;;;;;;;;;4975226;28;20034;-83
2022/05/23 10:05:24;;;;;;;4.25;1.30;;;;;;;;;;5000026;28;20407;-82
2022/05/23 10:07:51;;;;;;;4.10;1.35;;;;;;;;;;4980757;28;20026;-83
2022/05/23 10:10:21;;;;;;;3.65;1.42;;;;;;;;;;5010706;28;20044;-83
2022/05/23 10:12:48;;;;;;;5.70;1.40;;;;;;;;;;4994592;28;20037;-83
2022/05/23 10:15:17;;;;;;;3.15;1.33;;;;;;;;;;4962681;28;20061;-83
2022/05/23 10:17:43;;;;;;;4.30;1.67;;;;;;;;;;4977799;28;20021;-83
2022/05/23 10:20:27;;;;;;;5.63;1.48;;;;;;;;;;4987441;28;20102;-81
2022/05/23 10:23:04;;;;;;;3.83;1.30;;;;;;;;;;4941609;28;20137;-81
2022/05/23 10:25:37;;;;;;;3.53;1.55;;;;;;;;;;4972173;28;20419;-81
2022/05/23 10:28:07;;;;;;;6.03;1.65;;;;;;;;;;4953905;28;20039;-81
2022/05/23 10:30:34;;;;;;;7.47;1.20;;;;;;;;;;4968340;28;20510;-81
2022/05/23 10:33:02;;;;;;;5.75;1.73;;;;;;;;;;4990111;28;20038;-81
2022/05/23 10:35:36;;;;;;;3.10;1.20;;;;;;;;;;4989670;28;20056;-81
2022/05/23 10:44:02;;;;;;;4.87;1.97;;;;;;;;;;4995962;28;20625;-81
2022/05/23 10:46:28;;;;;;;4.28;1.63;;;;;;;;;;5006488;28;20041;-84
2022/05/23 10:49:06;;;;;;;5.10;1.63;;;;;;;;;;5007983;28;20038;-83
2022/05/23 10:51:38;;;;;;;5.68;1.70;;;;;;;;;;4962043;28;20503;-82
2022/05/23 10:54:20;;;;;;;5.97;2.17;;;;;;;;;;4994137;28;20046;-82
2022/05/23 10:57:02;;;;;;;7.00;2.28;;;;;;;;;;4979465;28;20445;-82
2022/05/23 10:59:28;;;;;;;;;;;;;;;;;;4977390;28;20057;-82
2022/05/23 11:02:10;;;;;;;5.15;1.92;;;;;;;;;;5011833;28;19913;-82
2022/05/23 11:04:55;;;;;;;6.50;2.38;;;;;;;;;;4981251;28;20026;-83
2022/05/23 11:07:25;;;;;;;5.63;1.65;;;;;;;;;;4996563;28;20094;-84
2022/05/23 11:10:08;;;;;;;4.90;2.20;;;;;;;;;;4980943;28;20026;-82
2022/05/23 11:13:11;;;;;;;5.53;2.22;;;;;;;;;;4997020;28;20030;-82
2022/05/23 11:15:43;;;;;;;4.85;1.80;;;;;;;;;;5029457;28;20045;-83
2022/05/23 11:18:27;;;;;;;5.38;2.65;;;;;;;;;;4996980;28;20033;-82
2022/05/23 11:20:55;;;;;;;4.13;2.20;;;;;;;;;;4959779;28;20045;-83
2022/05/23 11:23:35;;;;;;;6.03;2.00;;;;;;;;;;4977247;28;20049;-83
2022/05/23 11:26:17;;;;;;;5.30;2.28;;;;;;;;;;5000497;28;20041;-82
2022/05/23 11:34:59;;;;;;;6.07;2.20;;;;;;;;;;4996665;28;20090;-81
2022/05/23 11:39:53;;;;;;;5.75;2.00;;;;;;;;;;4977250;28;20090;-82
2022/05/23 11:42:24;;;;;;;7.22;2.05;;;;;;;;;;5026057;28;20042;-81
2022/05/23 11:44:49;;;;;;;5.25;2.60;;;;;;;;;;5002395;28;20038;-83
2022/05/23 11:47:18;;;;;;;5.95;2.13;;;;;;;;;;4989556;28;20039;-82
2022/05/23 11:49:50;;;;;;;5.15;1.90;;;;;;;;;;4991296;28;20530;-82
2022/05/23 11:52:47;;;;;;;11.32;2.42;;;;;;;;;;4992992;28;20130;-82
2022/05/23 11:55:50;;;;;;;5.90;2.67;;;;;;;;;;4984970;28;20068;-83
2022/05/23 11:58:48;;;;;;;6.53;2.28;;;;;;;;;;4992820;28;20145;-82
2022/05/23 12:01:17;;;;;;;6.78;2.33;;;;;;;;;;4993373;28;20041;-82
2022/05/23 12:03:52;;;;;;;6.70;2.58;;;;;;;;;;4993347;28;20061;-82
2022/05/23 12:06:24;;;;;;;6.32;2.28;;;;;;;;;;4992672;28;20046;-82
2022/05/23 12:09:01;;;;;;;6.07;2.22;;;;;;;;;;4976429;28;20102;-82
2022/05/23 12:11:37;;;;;;;5.57;2.40;;;;;;;;;;4976957;28;20034;-83
2022/05/23 12:14:18;;;;;;;10.57;3.22;;;;;;;;;;4979435;28;20036;-83
2022/05/23 12:16:50;;;;;;;5.93;2.35;;;;;;;;;;4995362;28;20026;-84
2022/05/23 12:19:30;;;;;;;6.80;2.05;;;;;;;;;;4999244;28;20068;-83
2022/05/23 12:22:33;;;;;;;8.98;2.92;;;;;;;;;;4973098;28;20039;-84
2022/05/23 12:25:17;;;;;;;4.43;2.28;;;;;;;;;;5009579;28;20423;-83
2022/05/23 12:27:43;;;;;;;5.13;2.17;;;;;;;;;;5013474;28;20509;-83
2022/05/23 12:30:17;;;;;;;6.53;2.60;;;;;;;;;;5010797;28;20058;-84
2022/05/23 12:32:44;;;;;;;5.03;1.92;;;;;;;;;;5005254;28;20105;-82
2022/05/23 12:35:09;;;;;;;7.43;2.35;;;;;;;;;;4967541;28;20034;-83
2022/05/23 12:37:40;;;;;;;4.90;2.67;;;;;;;;;;4992341;28;20037;-83
2022/05/23 12:40:22;;;;;;;7.00;2.53;;;;;;;;;;4992812;28;20041;-83
2022/05/23 12:43:05;;;;;;;5.55;2.05;;;;;;;;;;4993212;28;20537;-85
2022/05/23 12:45:56;;;;;;;5.05;2.15;;;;;;;;;;4974560;28;20048;-84
2022/05/23 12:48:33;;;;;;;4.85;2.30;;;;;;;;;;4981635;28;20049;-83
2022/05/23 12:54:53;;;;;;;8.25;2.80;;;;;;;;;;5077588;28;20041;-83
2022/05/23 12:57:22;;;;;;;6.32;2.65;;;;;;;;;;5074662;28;20046;-82
2022/05/23 12:59:51;;;;;;;5.88;2.78;;;;;;;;;;4991791;28;20041;-83
2022/05/23 13:02:37;;;;;;;5.47;2.58;;;;;;;;;;5008354;28;20037;-83
2022/05/23 13:05:20;;;;;;;6.25;2.42;;;;;;;;;;5000369;28;20084;-83
2022/05/23 13:07:50;;;;;;;5.78;2.78;;;;;;;;;;4957570;28;20392;-83
2022/05/23 13:10:47;;;;;;;4.38;2.30;;;;;;;;;;4955437;28;20035;-83
2022/05/23 13:13:31;;;;;;;5.20;2.10;;;;;;;;;;4971533;28;20416;-83
2022/05/23 13:16:16;;;;;;;6.32;2.65;;;;;;;;;;5004822;28;20504;-83
2022/05/23 13:24:13;;;;;;;5.47;2.40;;;;;;;;;;4996950;28;20037;-82
2022/05/23 13:26:39;;;;;;;7.57;2.30;;;;;;;;;;4974792;28;20029;-84
2022/05/23 13:29:08;;;;;;;4.78;2.50;;;;;;;;;;4990852;28;20114;-83
2022/05/23 13:31:35;;;;;;;6.22;2.95;;;;;;;;;;4963099;28;20103;-84
2022/05/23 13:34:01;;;;;;;4.53;2.25;;;;;;;;;;4991047;28;20037;-83
2022/05/23 13:36:38;;;;;;;5.03;2.92;;;;;;;;;;4992097;28;20042;-83
2022/05/23 13:39:15;;;;;;;5.57;2.67;;;;;;;;;;4991501;28;20034;-82
2022/05/23 13:41:41;;;;;;;6.95;4.55;;;;;;;;;;4991552;28;20030;-83
2022/05/23 13:44:07;;;;;;;4.30;1.65;;;;;;;;;;4991312;28;20128;-83
2022/05/23 13:46:40;;;;;;;4.53;2.10;;;;;;;;;;4991160;28;20038;-83
2022/05/23 13:49:08;;;;;;;7.45;3.03;;;;;;;;;;5008595;28;20030;-83
2022/05/23 13:51:47;;;;;;;9.13;5.53;;;;;;;;;;4991306;28;20034;-83
2022/05/23 13:54:35;;;;;;;12.45;8.68;;;;;;;;;;5009037;28;20113;-82
2022/05/23 13:57:12;;;;;;;11.55;7.13;;;;;;;;;;4993125;28;20038;-82
2022/05/23 14:00:13;;;;;;;11.15;6.90;;;;;;;;;;4991635;28;20050;-82
2022/05/23 14:03:02;;;;;;;8.88;5.63;;;;;;;;;;4968922;28;20073;-80
2022/05/23 14:05:33;;;;;;;9.43;5.43;;;;;;;;;;4990025;28;20397;-82
2022/05/23 14:07:59;;;;;;;8.95;5.50;;;;;;;;;;4959059;28;20044;-80
2022/05/23 14:10:28;;;;;;;7.18;4.18;;;;;;;;;;4991438;28;20030;-82
2022/05/23 14:12:55;;;;;;;6.72;3.80;;;;;;;;;;4959383;28;20061;-82
2022/05/23 14:15:22;;;;;;;6.65;4.53;;;;;;;;;;4959174;28;20038;-82
2022/05/23 14:17:49;;;;;;;8.48;4.20;;;;;;;;;;5042252;28;20042;-82
2022/05/23 14:20:29;;;;;;;7.22;3.90;;;;;;;;;;4971666;28;20489;-81
2022/05/23 14:23:23;;;;;;;9.98;3.72;;;;;;;;;;4972645;28;20065;-82
2022/05/23 14:25:54;;;;;;;7.85;3.05;;;;;;;;;;4970975;28;20078;-82
2022/05/23 14:28:24;;;;;;;7.35;3.20;;;;;;;;;;4993778;28;20041;-81
2022/05/23 14:30:55;;;;;;;7.22;3.45;;;;;;;;;;4978368;28;20030;-82
2022/05/23 14:33:32;;;;;;;7.32;4.13;;;;;;;;;;4958613;28;20050;-81
2022/05/23 14:36:22;;;;;;;7.18;3.28;;;;;;;;;;4951068;28;20026;-81
2022/05/23 14:38:47;;;;;;;6.55;3.42;;;;;;;;;;4983675;28;20041;-81
2022/05/23 14:41:26;;;;;;;9.55;3.65;;;;;;;;;;4994725;28;20458;-82
2022/05/23 14:44:05;;;;;;;7.60;3.30;;;;;;;;;;4942577;28;20138;-81
2022/05/23 14:46:37;;;;;;;9.98;3.40;;;;;;;;;;4974303;28;20504;-81
2022/05/23 14:50:01;;;;;;;7.70;3.40;;;;;;;;;;4942763;28;20026;-81
2022/05/23 14:52:46;;;;;;;9.98;3.50;;;;;;;;;;5001052;28;20253;-81
2022/05/23 14:55:21;;;;;;;7.25;3.30;;;;;;;;;;4996091;28;20052;-81
2022/05/23 15:00:48;;;;;;;12.52;3.95;;;;;;;;;;4992062;28;20550;-83
2022/05/23 15:03:41;;;;;;;8.27;2.83;;;;;;;;;;4974277;28;20400;-84
2022/05/23 15:06:07;;;;;;;6.97;2.40;;;;;;;;;;4987477;28;20047;-83
2022/05/23 15:08:32;;;;;;;4.88;2.45;;;;;;;;;;4974416;28;20049;-82
2022/05/23 15:10:58;;;;;;;9.48;3.28;;;;;;;;;;4989951;28;20389;-82
2022/05/23 15:13:23;;;;;;;8.65;3.00;;;;;;;;;;5006756;28;20070;-81
2022/05/23 15:15:49;;;;;;;7.30;2.78;;;;;;;;;;4958315;28;20034;-81
2022/05/23 15:18:15;;;;;;;6.47;2.80;;;;;;;;;;4973961;28;20523;-81
2022/05/23 15:20:41;;;;;;;6.65;3.22;;;;;;;;;;4997031;28;20456;-80
2022/05/23 15:23:06;;;;;;;5.97;2.42;;;;;;;;;;4961365;28;20046;-79
2022/05/23 15:25:32;;;;;;;5.07;2.45;;;;;;;;;;4975314;28;20042;-80
2022/05/23 15:27:57;;;;;;;7.50;2.72;;;;;;;;;;4973899;28;20054;-79
2022/05/23 15:30:25;;;;;;;12.25;3.33;;;;;;;;;;4986528;28;20404;-81
2022/05/23 15:32:51;;;;;;;7.22;2.88;;;;;;;;;;4993881;28;20629;-81
2022/05/23 15:35:17;;;;;;;7.88;2.90;;;;;;;;;;4992583;28;20060;-80
2022/05/23 15:37:43;;;;;;;6.32;2.67;;;;;;;;;;5009930;28;20503;-80
2022/05/23 15:40:08;;;;;;;14.10;4.32;;;;;;;;;;5009223;28;20063;-78
2022/05/23 15:42:34;;;;;;;8.65;5.60;;;;;;;;;;4977235;28;20038;-78
2022/05/23 15:45:09;;;;;;;15.32;7.97;;;;;;;;;;5009516;28;20074;-78
2022/05/23 15:47:35;;;;;;;18.73;12.40;;;;;;;;;;4977304;28;20068;-78
2022/05/23 15:50:01;;;;;;;21.20;10.98;;;;;;;;;;4992253;28;20056;-78
2022/05/23 15:52:27;;;;;;;12.85;6.85;;;;;;;;;;5060937;28;20167;-78
2022/05/23 15:54:52;;;;;;;7.00;4.57;;;;;;;;;;5043292;28;20075;-79
2022/05/23 15:57:28;;;;;;;8.52;4.22;;;;;;;;;;4987838;23;20062;-80
2022/05/23 15:59:57;;;;;;;9.23;3.67;;;;;;;;;;5007309;28;20035;-79
2022/05/23 16:02:23;;;;;;;8.10;5.15;;;;;;;;;;4951124;28;20516;-79
2022/05/23 16:04:48;;;;;;;42.00;39.03;;;;;;;;;;4943661;28;20031;-79
2022/05/23 16:07:13;;;;;;;128.15;119.57;;;;;;;;;;4969782;28;20042;-79
2022/05/23 16:09:39;;;;;;;362.05;335.25;;;;;;;;;;4954426;28;20393;-79
2022/05/23 16:12:06;;;;;;;193.70;175.90;;;;;;;;;;5005114;28;20374;-80